Time;durP1;ratioP1;P1;durP2;ratioP2;P2;SDS_P1;SDS_P2;PMS_P1;PMS_P2;Temp;Humidity;BMP_temperature;BMP_pressure;BME280_temperature;BME280_humidity;BME280_pressure;Samples;Min_cycle;Max_cycle;Signal;HPM_P1;HPM_P2
2023/08/15 00:00:24;;;;;;;14.93;10.70;;;22.70;88.90;;;;;;7371657;19;20031;-71
2023/08/15 00:02:53;;;;;;;15.70;11.13;;;22.70;80.00;;;;;;7372658;19;20542;-70
2023/08/15 00:05:23;;;;;;;11.38;10.25;;;22.70;76.70;;;;;;7372349;19;20462;-70
2023/08/15 00:07:57;;;;;;;14.38;10.95;;;22.70;81.80;;;;;;7372467;19;20531;-71
2023/08/15 00:10:27;;;;;;;14.07;10.70;;;22.70;82.00;;;;;;7372412;19;20019;-71
2023/08/15 00:12:57;;;;;;;15.05;11.30;;;22.70;83.50;;;;;;7372888;19;20010;-70
2023/08/15 00:15:27;;;;;;;11.57;10.43;;;22.60;84.30;;;;;;7371051;19;20438;-71
2023/08/15 00:17:57;;;;;;;13.05;10.85;;;22.60;87.70;;;;;;7372379;19;20023;-70
2023/08/15 00:20:27;;;;;;;15.52;11.45;;;22.60;90.80;;;;;;7372305;19;20781;-70
2023/08/15 00:22:59;;;;;;;14.25;10.43;;;22.60;90.20;;;;;;7372322;19;20105;-71
2023/08/15 00:25:29;;;;;;;17.90;11.60;;;22.60;88.00;;;;;;7371586;19;20050;-71
2023/08/15 00:27:59;;;;;;;14.35;11.10;;;22.60;84.90;;;;;;7371058;19;20034;-71
2023/08/15 00:30:32;;;;;;;15.68;10.77;;;22.50;91.40;;;;;;7371891;19;20062;-71
2023/08/15 00:33:02;;;;;;;11.47;9.83;;;22.40;92.70;;;;;;7370166;19;20011;-70
2023/08/15 00:35:33;;;;;;;13.80;11.40;;;22.50;93.10;;;;;;7370590;19;20035;-71
2023/08/15 00:38:06;;;;;;;15.85;12.00;;;22.50;92.40;;;;;;7372170;19;20015;-70
2023/08/15 00:40:36;;;;;;;12.48;10.73;;;22.40;94.90;;;;;;7370347;19;20081;-69
2023/08/15 00:43:06;;;;;;;14.10;11.85;;;22.30;96.10;;;;;;7370384;19;20010;-70
2023/08/15 00:45:40;;;;;;;12.25;10.85;;;22.30;99.10;;;;;;7370238;19;20010;-69
2023/08/15 00:48:10;;;;;;;;;;;22.30;99.90;;;;;;7371428;19;20025;-71
2023/08/15 00:50:43;;;;;;;13.38;11.57;;;22.30;99.10;;;;;;7369959;19;19919;-71
2023/08/15 00:53:15;;;;;;;13.60;12.03;;;22.30;99.70;;;;;;7370008;19;20010;-70
2023/08/15 00:55:46;;;;;;;13.55;10.55;;;22.20;99.90;;;;;;7369260;19;20081;-71
2023/08/15 00:58:17;;;;;;;13.50;10.73;;;22.10;99.90;;;;;;7369438;19;20082;-71
2023/08/15 01:00:47;;;;;;;14.75;11.55;;;22.10;99.90;;;;;;7369584;19;20014;-71
2023/08/15 01:03:17;;;;;;;14.38;11.82;;;22.10;99.90;;;;;;7372948;19;20489;-70
2023/08/15 01:05:48;;;;;;;13.48;12.07;;;22.10;99.90;;;;;;7376397;19;20015;-69
2023/08/15 01:08:21;;;;;;;16.75;11.95;;;22.00;99.90;;;;;;7376878;19;20014;-70
2023/08/15 01:10:51;;;;;;;13.13;10.63;;;22.10;99.90;;;;;;7374557;19;20014;-71
2023/08/15 01:13:34;;;;;;;13.93;10.75;;;22.10;98.80;;;;;;7378275;19;20039;-70
2023/08/15 01:16:09;;;;;;;13.02;11.73;;;22.10;99.30;;;;;;7375422;19;20025;-71
2023/08/15 01:18:44;;;;;;;17.63;11.85;;;22.10;99.90;;;;;;7377873;19;20011;-71
2023/08/15 01:21:21;;;;;;;15.43;12.20;;;22.10;99.90;;;;;;7376780;19;20010;-71
2023/08/15 01:23:54;;;;;;;15.23;12.13;;;22.10;99.90;;;;;;7376361;19;20992;-70
2023/08/15 01:26:24;;;;;;;15.98;12.40;;;22.10;99.90;;;;;;7376233;19;20363;-71
2023/08/15 01:28:54;;;;;;;14.35;12.30;;;22.10;99.90;;;;;;7376492;19;20015;-70
2023/08/15 01:31:31;;;;;;;16.40;11.90;;;22.10;99.90;;;;;;7374335;19;20506;-70
2023/08/15 01:34:09;;;;;;;13.32;11.95;;;22.10;99.90;;;;;;7371686;19;20007;-71
2023/08/15 01:36:44;;;;;;;13.40;11.10;;;22.00;99.90;;;;;;7374679;19;20006;-71
2023/08/15 01:39:20;;;;;;;13.63;10.40;;;22.00;99.90;;;;;;7375918;19;20022;-71
2023/08/15 01:41:53;;;;;;;12.60;10.65;;;22.00;99.90;;;;;;7374169;19;20017;-71
2023/08/15 01:44:23;;;;;;;12.18;10.50;;;22.00;99.90;;;;;;7376104;19;20096;-71
2023/08/15 01:46:53;;;;;;;12.70;11.40;;;22.10;99.90;;;;;;7376917;19;20027;-71
2023/08/15 01:49:23;;;;;;;12.38;10.90;;;22.00;99.90;;;;;;7375348;19;20033;-71
2023/08/15 01:51:54;;;;;;;13.60;12.02;;;22.00;99.90;;;;;;7375071;19;20971;-70
2023/08/15 01:54:27;;;;;;;14.20;12.45;;;22.00;99.90;;;;;;7375286;19;20022;-70
2023/08/15 01:56:56;;;;;;;13.40;11.07;;;22.00;99.90;;;;;;7375595;19;20020;-71
2023/08/15 01:59:26;;;;;;;15.95;11.40;;;21.90;99.90;;;;;;7375383;19;20014;-70
2023/08/15 02:01:56;;;;;;;14.23;10.85;;;22.00;99.90;;;;;;7377581;19;20044;-71
2023/08/15 02:04:26;;;;;;;13.88;10.40;;;21.90;99.90;;;;;;7377122;19;20530;-70
2023/08/15 02:06:56;;;;;;;12.73;10.60;;;22.00;99.80;;;;;;7375120;19;20024;-70
2023/08/15 02:09:29;;;;;;;15.50;11.07;;;22.00;96.80;;;;;;7374531;19;20002;-71
2023/08/15 02:11:59;;;;;;;13.55;12.05;;;21.90;98.80;;;;;;7375243;19;20021;-70
2023/08/15 02:14:28;;;;;;;14.48;11.48;;;21.90;99.90;;;;;;7372885;19;20106;-71
2023/08/15 02:16:58;;;;;;;15.23;11.10;;;21.90;99.90;;;;;;7375498;19;20023;-70
2023/08/15 02:19:28;;;;;;;15.50;10.90;;;21.80;99.90;;;;;;7373968;19;20031;-70
2023/08/15 02:21:58;;;;;;;15.30;11.45;;;21.90;99.90;;;;;;7373934;19;20541;-70
2023/08/15 02:24:31;;;;;;;13.73;11.48;;;21.90;99.90;;;;;;7382799;19;20006;-70
2023/08/15 02:27:01;;;;;;;15.52;11.77;;;21.90;99.90;;;;;;7383135;19;20177;-71
2023/08/15 02:29:31;;;;;;;16.08;10.90;;;21.90;99.40;;;;;;7380288;19;20022;-68
2023/08/15 02:32:01;;;;;;;12.10;10.90;;;21.90;97.50;;;;;;7375787;19;20025;-71
2023/08/15 02:34:31;;;;;;;12.27;10.50;;;21.80;98.40;;;;;;7376538;19;20023;-70
2023/08/15 02:37:01;;;;;;;14.10;10.88;;;21.80;99.80;;;;;;7373868;19;20034;-71
2023/08/15 02:39:33;;;;;;;13.48;10.77;;;21.80;98.20;;;;;;7374232;19;20608;-71
2023/08/15 02:42:03;;;;;;;15.45;10.93;;;21.80;97.50;;;;;;7373364;19;20081;-71
2023/08/15 02:44:34;;;;;;;13.63;9.90;;;21.70;97.50;;;;;;7374293;19;20010;-71
2023/08/15 02:47:04;;;;;;;13.98;11.15;;;21.60;99.90;;;;;;7373326;19;20021;-71
2023/08/15 02:49:34;;;;;;;13.13;10.23;;;21.60;99.90;;;;;;7373606;19;20016;-71
2023/08/15 02:52:04;;;;;;;12.05;9.80;;;21.60;99.90;;;;;;7374410;19;20030;-71
2023/08/15 02:54:36;;;;;;;13.00;11.20;;;21.80;99.90;;;;;;7374149;19;20586;-71
2023/08/15 02:57:06;;;;;;;13.05;10.50;;;21.80;95.60;;;;;;7375378;19;20086;-70
2023/08/15 02:59:36;;;;;;;13.00;11.05;;;21.80;98.00;;;;;;7372317;19;20027;-70
2023/08/15 03:02:06;;;;;;;16.48;10.35;;;21.80;97.00;;;;;;7373151;19;20018;-70
2023/08/15 03:04:36;;;;;;;13.85;10.57;;;21.70;98.10;;;;;;7373581;19;20458;-70
2023/08/15 03:07:06;;;;;;;15.02;10.07;;;21.80;97.40;;;;;;7373906;19;20014;-70
2023/08/15 03:09:39;;;;;;;16.60;10.80;;;21.80;95.30;;;;;;7372941;19;20085;-71
2023/08/15 03:12:09;;;;;;;11.23;9.55;;;21.80;97.50;;;;;;7374366;19;20017;-69
2023/08/15 03:14:39;;;;;;;14.13;10.50;;;21.80;94.30;;;;;;7372288;19;20078;-70
2023/08/15 03:17:09;;;;;;;14.18;9.63;;;21.80;93.20;;;;;;7375568;19;20465;-70
2023/08/15 03:19:40;;;;;;;14.23;10.45;;;21.70;94.50;;;;;;7372708;19;20014;-70
2023/08/15 03:22:10;;;;;;;11.52;10.15;;;21.70;97.00;;;;;;7372983;19;20006;-70
2023/08/15 03:24:43;;;;;;;13.90;10.10;;;21.80;96.00;;;;;;7371580;19;20067;-71
2023/08/15 03:27:13;;;;;;;10.68;9.57;;;21.80;93.10;;;;;;7370393;19;20110;-70
2023/08/15 03:29:43;;;;;;;10.50;9.27;;;21.70;91.50;;;;;;7372285;19;20013;-71
2023/08/15 03:32:13;;;;;;;14.43;9.40;;;21.70;92.40;;;;;;7370755;19;20037;-71
2023/08/15 03:34:43;;;;;;;15.10;9.50;;;21.60;91.80;;;;;;7373096;19;20024;-71
2023/08/15 03:37:13;;;;;;;13.27;10.60;;;21.60;93.20;;;;;;7374812;19;20015;-70
2023/08/15 03:39:45;;;;;;;10.43;9.10;;;21.50;94.20;;;;;;7369785;19;20006;-71
2023/08/15 03:42:13;;;;;;;12.80;10.45;;;21.50;94.30;;;;;;7371660;19;20474;-69
2023/08/15 03:44:43;;;;;;;13.82;10.45;;;21.40;98.80;;;;;;7371484;19;20022;-70
2023/08/15 03:47:13;;;;;;;11.82;9.32;;;21.30;99.90;;;;;;7372918;19;20007;-70
2023/08/15 03:49:42;;;;;;;14.52;10.68;;;21.30;99.90;;;;;;7374228;19;20074;-70
2023/08/15 03:52:12;;;;;;;11.15;9.73;;;21.20;99.90;;;;;;7372398;19;20347;-70
2023/08/15 03:54:45;;;;;;;12.10;10.40;;;21.30;99.90;;;;;;7370880;19;20006;-70
2023/08/15 03:57:15;;;;;;;13.32;10.88;;;21.30;99.90;;;;;;7370873;19;20013;-69
2023/08/15 03:59:45;;;;;;;16.13;9.50;;;21.30;99.90;;;;;;7371564;19;20018;-70
2023/08/15 04:02:15;;;;;;;13.55;10.27;;;21.30;99.90;;;;;;7370702;19;20011;-70
2023/08/15 04:04:45;;;;;;;14.65;10.30;;;21.40;99.90;;;;;;7370361;19;20021;-70
2023/08/15 04:07:14;;;;;;;12.57;10.52;;;21.50;99.90;;;;;;7371196;19;20011;-71
2023/08/15 04:09:47;;;;;;;12.95;10.65;;;21.40;99.90;;;;;;7369831;19;20006;-70
2023/08/15 04:12:17;;;;;;;13.80;10.73;;;21.40;99.90;;;;;;7370064;19;20466;-70
2023/08/15 04:14:47;;;;;;;12.43;10.65;;;21.30;99.60;;;;;;7369920;19;20018;-70
2023/08/15 04:17:17;;;;;;;16.60;10.60;;;21.20;99.90;;;;;;7371185;19;20015;-71
2023/08/15 04:19:47;;;;;;;14.15;10.40;;;21.20;99.90;;;;;;7369982;19;20094;-70
2023/08/15 04:22:17;;;;;;;16.27;11.27;;;21.20;99.90;;;;;;7370175;19;20079;-71
2023/08/15 04:24:49;;;;;;;13.30;10.15;;;21.10;99.90;;;;;;7371459;19;20582;-71
2023/08/15 04:27:19;;;;;;;12.30;11.02;;;21.20;99.90;;;;;;7372983;19;20015;-70
2023/08/15 04:29:50;;;;;;;20.42;11.65;;;21.20;99.90;;;;;;7370790;19;20018;-70
2023/08/15 04:32:20;;;;;;;14.18;11.30;;;21.20;99.90;;;;;;7370581;19;20003;-71
2023/08/15 04:34:50;;;;;;;13.95;10.82;;;21.40;99.90;;;;;;7369938;19;20128;-69
2023/08/15 04:37:20;;;;;;;14.77;10.20;;;21.40;99.90;;;;;;7370846;19;20474;-70
2023/08/15 04:39:53;;;;;;;12.38;9.77;;;21.60;99.20;;;;;;7376880;19;20003;-71
2023/08/15 04:42:23;;;;;;;18.88;11.07;;;21.60;93.70;;;;;;7379475;19;20014;-70
2023/08/15 04:44:53;;;;;;;12.10;10.65;;;21.60;93.50;;;;;;7381076;19;20077;-70
2023/08/15 04:47:23;;;;;;;12.55;11.32;;;21.40;92.40;;;;;;7380686;19;20022;-70
2023/08/15 04:49:53;;;;;;;14.82;10.27;;;21.40;97.00;;;;;;7377418;19;20017;-71
2023/08/15 04:52:23;;;;;;;11.90;10.70;;;21.40;99.00;;;;;;7378871;19;20017;-71
2023/08/15 04:54:55;;;;;;;15.90;10.63;;;21.50;97.70;;;;;;7376888;19;20177;-70
2023/08/15 04:57:25;;;;;;;12.18;10.35;;;22.00;84.00;;;;;;7380283;19;20006;-70
2023/08/15 04:59:55;;;;;;;15.40;10.15;;;22.90;30.00;;;;;;7380039;19;20812;-71
2023/08/15 05:02:25;;;;;;;13.27;9.63;;;23.50;7.40;;;;;;7376365;19;20489;-71
2023/08/15 05:04:55;;;;;;;11.88;9.30;;;24.10;1.00;;;;;;7375807;19;20014;-71
2023/08/15 05:07:25;;;;;;;11.18;9.50;;;24.50;1.00;;;;;;7376131;19;20014;-71
2023/08/15 05:09:57;;;;;;;12.52;8.00;;;23.70;1.00;;;;;;7375508;19;20030;-71
2023/08/15 05:12:27;;;;;;;11.18;8.10;;;23.20;4.40;;;;;;7376257;19;20045;-71
2023/08/15 05:14:57;;;;;;;11.73;8.63;;;23.80;1.00;;;;;;7375503;19;20243;-71
2023/08/15 05:17:27;;;;;;;12.15;8.20;;;25.30;1.00;;;;;;7378593;19;20021;-71
2023/08/15 05:20:00;;;;;;;9.20;7.70;;;25.90;1.00;;;;;;7376066;19;20085;-71
2023/08/15 05:22:30;;;;;;;8.05;7.05;;;26.30;1.00;;;;;;7377462;19;20014;-69
2023/08/15 05:25:03;;;;;;;8.98;7.43;;;26.50;1.00;;;;;;7374968;19;20010;-69
2023/08/15 05:27:33;;;;;;;12.45;7.13;;;26.70;1.00;;;;;;7375483;19;20015;-70
2023/08/15 05:30:03;;;;;;;7.80;7.05;;;26.20;1.00;;;;;;7374305;19;20011;-72
2023/08/15 05:32:33;;;;;;;10.82;7.80;;;25.10;1.00;;;;;;7375451;19;20514;-71
2023/08/15 05:35:03;;;;;;;10.13;7.25;;;25.90;1.00;;;;;;7374792;19;20034;-71
2023/08/15 05:37:33;;;;;;;9.38;7.60;;;25.10;1.00;;;;;;7376351;19;20503;-71
2023/08/15 05:40:07;;;;;;;8.80;7.63;;;25.80;1.00;;;;;;7376467;19;20011;-71
2023/08/15 05:42:37;;;;;;;11.52;8.32;;;24.60;1.00;;;;;;7376788;19;20014;-71
2023/08/15 05:45:08;;;;;;;11.15;8.43;;;23.80;1.00;;;;;;7373704;19;20010;-70
2023/08/15 05:47:38;;;;;;;9.77;8.02;;;23.50;1.00;;;;;;7375906;19;20010;-70
2023/08/15 05:50:09;;;;;;;10.77;8.20;;;24.30;1.00;;;;;;7372986;19;20027;-71
2023/08/15 05:52:39;;;;;;;10.40;8.45;;;24.00;1.00;;;;;;7381111;19;20518;-71
2023/08/15 05:55:12;;;;;;;9.88;8.35;;;23.90;1.00;;;;;;7380246;19;20013;-71
2023/08/15 05:57:42;;;;;;;9.70;8.70;;;23.60;1.00;;;;;;7378770;19;20018;-71
2023/08/15 06:00:13;;;;;;;13.30;9.00;;;23.40;1.00;;;;;;7385557;19;20086;-71
2023/08/15 06:02:44;;;;;;;12.85;9.73;;;23.40;1.00;;;;;;7388205;19;20041;-70
2023/08/15 06:05:14;;;;;;;10.55;9.55;;;23.30;1.00;;;;;;7382783;19;20074;-69
2023/08/15 06:07:44;;;;;;;11.60;8.93;;;23.30;3.20;;;;;;7379762;19;20398;-70
2023/08/15 06:10:17;;;;;;;13.65;8.70;;;23.70;1.00;;;;;;7378347;19;20014;-70
2023/08/15 06:12:47;;;;;;;10.02;9.02;;;23.80;1.00;;;;;;7373573;19;20018;-70
2023/08/15 06:15:17;;;;;;;10.13;7.75;;;23.50;1.00;;;;;;7374128;19;20010;-71
2023/08/15 06:17:47;;;;;;;9.88;7.55;;;23.40;1.00;;;;;;7375170;19;20011;-70
2023/08/15 06:20:18;;;;;;;10.77;8.45;;;23.00;1.00;;;;;;7376395;19;20014;-71
2023/08/15 06:22:48;;;;;;;9.63;8.40;;;23.30;1.00;;;;;;7374743;19;20514;-70
2023/08/15 06:25:21;;;;;;;11.75;8.52;;;23.40;1.00;;;;;;7374581;19;20810;-69
2023/08/15 06:27:51;;;;;;;10.38;8.50;;;23.40;1.00;;;;;;7372395;19;20079;-70
2023/08/15 06:30:21;;;;;;;11.57;8.27;;;23.70;1.00;;;;;;7373258;19;20015;-70
2023/08/15 06:32:51;;;;;;;10.60;8.77;;;23.70;1.00;;;;;;7374910;19;20021;-71
2023/08/15 06:35:26;;;;;;;12.07;8.88;;;23.80;1.00;;;;;;7374900;19;20546;-70
2023/08/15 06:37:57;;;;;;;13.13;8.40;;;23.70;1.00;;;;;;7376388;19;20044;-72
2023/08/15 06:40:29;;;;;;;14.45;9.20;;;23.50;1.00;;;;;;7373199;19;20032;-71
2023/08/15 06:42:59;;;;;;;10.88;8.15;;;23.60;1.00;;;;;;7373367;19;20502;-72
2023/08/15 06:45:29;;;;;;;11.70;8.77;;;23.60;1.00;;;;;;7372509;19;20011;-71
2023/08/15 06:47:59;;;;;;;15.38;8.13;;;24.00;1.00;;;;;;7374285;19;20014;-70
2023/08/15 06:50:29;;;;;;;11.50;8.15;;;24.00;1.00;;;;;;7373128;19;20016;-71
2023/08/15 06:52:59;;;;;;;8.48;7.22;;;24.00;1.00;;;;;;7373586;19;20014;-71
2023/08/15 06:55:32;;;;;;;8.05;7.25;;;24.30;1.00;;;;;;7374137;19;20079;-71
2023/08/15 06:58:02;;;;;;;9.82;7.78;;;24.50;1.00;;;;;;7373561;19;20750;-72
2023/08/15 07:00:33;;;;;;;11.75;7.28;;;24.70;1.00;;;;;;7371457;19;20076;-72
2023/08/15 07:03:03;;;;;;;11.85;6.82;;;24.90;1.00;;;;;;7373138;19;20014;-70
2023/08/15 07:05:33;;;;;;;10.10;6.85;;;24.30;1.00;;;;;;7372889;19;20485;-71
2023/08/15 07:08:03;;;;;;;8.63;6.40;;;24.30;1.00;;;;;;7371488;19;20074;-71
2023/08/15 07:10:36;;;;;;;7.25;6.55;;;24.70;1.00;;;;;;7371953;19;20102;-71
2023/08/15 07:13:06;;;;;;;13.55;6.70;;;25.00;1.00;;;;;;7372825;19;20014;-71
2023/08/15 07:15:36;;;;;;;10.75;6.03;;;25.70;1.00;;;;;;7374116;19;20102;-71
2023/08/15 07:18:07;;;;;;;9.43;6.07;;;25.10;1.00;;;;;;7373255;19;20002;-71
2023/08/15 07:20:37;;;;;;;6.85;5.50;;;25.40;1.00;;;;;;7372706;19;20486;-71
2023/08/15 07:23:08;;;;;;;7.32;6.03;;;25.80;1.00;;;;;;7372486;19;20761;-70
2023/08/15 07:25:43;;;;;;;9.30;6.10;;;25.50;1.00;;;;;;7372642;19;20007;-71
2023/08/15 07:28:13;;;;;;;9.20;6.22;;;25.40;1.00;;;;;;7372335;19;20082;-72
2023/08/15 07:30:45;;;;;;;10.73;6.00;;;25.20;1.00;;;;;;7371964;19;20006;-70
2023/08/15 07:33:16;;;;;;;8.65;6.57;;;25.40;1.00;;;;;;7375354;19;20036;-71
2023/08/15 07:35:46;;;;;;;11.13;6.57;;;26.10;1.00;;;;;;7369829;19;20055;-71
2023/08/15 07:38:16;;;;;;;6.88;5.50;;;26.60;1.00;;;;;;7374741;19;20036;-70
2023/08/15 07:40:51;;;;;;;8.75;6.03;;;26.70;1.00;;;;;;7373040;19;20386;-70
2023/08/15 07:43:21;;;;;;;8.15;5.82;;;26.00;1.00;;;;;;7372425;19;21006;-70
2023/08/15 07:45:51;;;;;;;8.60;6.05;;;25.70;1.00;;;;;;7374715;19;20571;-70
2023/08/15 07:48:21;;;;;;;7.93;5.75;;;26.10;1.00;;;;;;7375093;19;20038;-69
2023/08/15 07:50:51;;;;;;;14.30;10.68;;;26.00;1.00;;;;;;7369833;19;20035;-71
2023/08/15 07:53:21;;;;;;;8.27;6.15;;;26.30;1.00;;;;;;7370646;19;20066;-72
2023/08/15 07:55:54;;;;;;;10.68;6.07;;;26.40;1.00;;;;;;7371301;19;20023;-71
2023/08/15 07:58:24;;;;;;;10.20;5.90;;;26.20;1.00;;;;;;7371391;19;20409;-71
2023/08/15 08:00:54;;;;;;;9.63;6.32;;;26.20;1.00;;;;;;7370917;19;20010;-70
2023/08/15 08:03:24;;;;;;;10.65;6.53;;;26.00;1.00;;;;;;7370574;19;20018;-71
2023/08/15 08:05:54;;;;;;;8.43;5.68;;;26.10;1.00;;;;;;7373058;19;20537;-72
2023/08/15 08:08:24;;;;;;;10.27;5.70;;;25.80;1.00;;;;;;7372317;19;20006;-72
2023/08/15 08:10:57;;;;;;;10.10;6.63;;;25.90;1.00;;;;;;7371466;19;20014;-71
2023/08/15 08:13:27;;;;;;;12.00;6.90;;;26.00;1.00;;;;;;7368484;19;20078;-70
2023/08/15 08:15:57;;;;;;;13.38;6.45;;;25.80;1.00;;;;;;7372744;19;20006;-71
2023/08/15 08:18:26;;;;;;;9.10;6.30;;;25.80;1.00;;;;;;7372778;19;20007;-70
2023/08/15 08:20:56;;;;;;;6.82;6.13;;;26.00;1.00;;;;;;7370000;19;20047;-70
2023/08/15 08:23:26;;;;;;;11.02;6.68;;;26.00;1.00;;;;;;7369767;19;20106;-71
2023/08/15 08:25:59;;;;;;;11.98;5.97;;;26.10;1.00;;;;;;7373210;19;20014;-69
2023/08/15 08:28:29;;;;;;;6.50;5.78;;;26.40;1.00;;;;;;7372389;19;20078;-70
2023/08/15 08:30:59;;;;;;;8.77;6.18;;;27.00;1.00;;;;;;7371824;19;20027;-71
2023/08/15 08:33:29;;;;;;;7.57;5.75;;;27.20;1.00;;;;;;7369286;19;20081;-71
2023/08/15 08:35:59;;;;;;;7.60;5.80;;;27.00;1.00;;;;;;7370279;19;20018;-71
2023/08/15 08:38:29;;;;;;;6.80;6.15;;;27.00;1.00;;;;;;7369733;19;20021;-71
2023/08/15 08:41:02;;;;;;;7.10;5.63;;;26.70;1.00;;;;;;7370315;19;20021;-71
2023/08/15 08:43:33;;;;;;;8.00;6.20;;;26.50;1.00;;;;;;7369149;19;20007;-71
2023/08/15 08:46:07;;;;;;;8.20;5.80;;;26.80;1.00;;;;;;7369473;19;20507;-72
2023/08/15 08:48:37;;;;;;;8.98;5.68;;;27.10;1.00;;;;;;7369690;19;20033;-72
2023/08/15 08:51:08;;;;;;;7.30;5.47;;;27.20;1.00;;;;;;7369818;19;20010;-71
2023/08/15 08:53:38;;;;;;;10.60;5.95;;;27.10;1.00;;;;;;7368668;19;20006;-70
2023/08/15 08:56:11;;;;;;;9.50;5.32;;;27.10;1.00;;;;;;7369465;19;20482;-71
2023/08/15 08:58:45;;;;;;;6.13;5.13;;;27.30;1.00;;;;;;7368592;19;20093;-71
2023/08/15 09:01:15;;;;;;;7.45;5.68;;;27.50;1.00;;;;;;7370139;19;20538;-72
2023/08/15 09:03:46;;;;;;;8.95;6.07;;;27.40;1.00;;;;;;7370877;19;20664;-70
2023/08/15 09:06:16;;;;;;;7.78;5.45;;;28.00;1.00;;;;;;7370723;19;20044;-71
2023/08/15 09:08:46;;;;;;;7.70;5.68;;;28.00;1.00;;;;;;7371469;19;20017;-72
2023/08/15 09:11:19;;;;;;;10.65;7.15;;;28.00;1.00;;;;;;7369818;19;20027;-71
2023/08/15 09:13:49;;;;;;;9.57;5.80;;;28.00;1.00;;;;;;7367194;19;20014;-71
2023/08/15 09:16:19;;;;;;;6.05;5.45;;;27.70;1.00;;;;;;7369913;19;20015;-71
2023/08/15 09:18:49;;;;;;;9.27;5.70;;;27.60;1.00;;;;;;7368152;19;20006;-71
2023/08/15 09:21:19;;;;;;;5.93;5.32;;;27.50;1.00;;;;;;7368122;19;20472;-71
2023/08/15 09:23:49;;;;;;;6.72;4.93;;;27.50;1.00;;;;;;7370325;19;20040;-71
2023/08/15 09:26:22;;;;;;;7.72;5.57;;;27.80;1.00;;;;;;7379524;19;20550;-71
2023/08/15 09:28:52;;;;;;;9.55;5.82;;;27.50;1.00;;;;;;7375915;19;20082;-70
2023/08/15 09:31:23;;;;;;;6.18;5.25;;;27.30;1.00;;;;;;7375801;19;20014;-71
2023/08/15 09:33:53;;;;;;;10.88;5.60;;;27.50;1.00;;;;;;7375144;19;20113;-71
2023/08/15 09:36:26;;;;;;;8.20;5.53;;;27.50;1.00;;;;;;7378293;19;20095;-71
2023/08/15 09:39:00;;;;;;;10.95;6.70;;;27.70;1.00;;;;;;7383272;19;20018;-70
2023/08/15 09:41:32;;;;;;;8.05;5.65;;;27.90;1.00;;;;;;7383902;19;20010;-72
2023/08/15 09:44:02;;;;;;;6.68;5.22;;;27.70;1.00;;;;;;7376791;19;20098;-70
2023/08/15 09:46:32;;;;;;;10.02;6.10;;;27.90;1.00;;;;;;7375557;19;20015;-71
2023/08/15 09:49:03;;;;;;;7.65;6.15;;;28.00;1.00;;;;;;7373846;19;20011;-71
2023/08/15 09:51:34;;;;;;;9.68;6.95;;;28.00;1.00;;;;;;7375702;19;20557;-71
2023/08/15 09:54:05;;;;;;;10.52;6.35;;;27.60;1.00;;;;;;7373994;19;20015;-71
2023/08/15 09:56:37;;;;;;;7.45;6.10;;;27.70;1.00;;;;;;7374739;19;20078;-71
2023/08/15 09:59:07;;;;;;;6.82;5.53;;;27.60;1.00;;;;;;7374589;19;20030;-71
2023/08/15 10:01:42;;;;;;;7.07;6.38;;;27.90;1.00;;;;;;7374115;19;20027;-70
2023/08/15 10:04:15;;;;;;;7.72;6.40;;;27.80;1.00;;;;;;7377745;19;20014;-72
2023/08/15 10:06:46;;;;;;;11.27;5.82;;;27.90;1.00;;;;;;7375481;19;20496;-72
2023/08/15 10:09:17;;;;;;;13.43;6.25;;;28.40;1.00;;;;;;7373757;19;20026;-70
2023/08/15 10:11:51;;;;;;;7.03;6.03;;;28.40;1.00;;;;;;7371940;19;20010;-71
2023/08/15 10:14:23;;;;;;;8.05;6.22;;;28.10;1.00;;;;;;7370803;19;20099;-72
2023/08/15 10:16:54;;;;;;;7.07;6.10;;;28.10;1.00;;;;;;7373175;19;20502;-72
2023/08/15 10:19:32;;;;;;;11.25;6.78;;;28.60;1.00;;;;;;7374216;19;20074;-72
2023/08/15 10:22:05;;;;;;;8.73;5.93;;;28.40;1.00;;;;;;7377668;19;20025;-71
2023/08/15 10:24:35;;;;;;;8.43;6.00;;;28.30;1.00;;;;;;7376145;19;20023;-71
2023/08/15 10:27:12;;;;;;;7.97;5.88;;;28.50;1.00;;;;;;7373577;19;20035;-71
2023/08/15 10:29:57;;;;;;;7.78;4.40;;;28.80;1.00;;;;;;7374096;19;20025;-71
2023/08/15 10:32:28;;;;;;;5.80;3.72;;;28.80;1.00;;;;;;7371998;19;20082;-72
2023/08/15 10:35:01;;;;;;;5.97;3.30;;;28.80;1.00;;;;;;7371471;19;20003;-71
2023/08/15 10:37:33;;;;;;;4.88;3.35;;;28.80;1.00;;;;;;7374035;19;20061;-70
2023/08/15 10:40:11;;;;;;;7.85;3.47;;;28.70;1.00;;;;;;7373633;19;20032;-70
2023/08/15 10:43:13;;;;;;;6.05;2.60;;;28.60;1.00;;;;;;7373008;19;20026;-71
2023/08/15 10:45:49;;;;;;;5.05;3.33;;;28.20;1.00;;;;;;6864095;19;2004723;-71
2023/08/15 10:48:44;;;;;;;5.57;3.10;;;28.40;1.00;;;;;;7375372;19;20002;-71
2023/08/15 10:51:30;;;;;;;10.43;3.10;;;28.60;1.00;;;;;;6861772;19;2004849;-71
2023/08/15 10:54:02;;;;;;;7.45;3.05;;;28.60;1.00;;;;;;7361536;19;20010;-72
2023/08/15 10:56:33;;;;;;;4.30;2.35;;;28.60;1.00;;;;;;7375929;19;20007;-72
2023/08/15 10:59:08;;;;;;;6.13;2.67;;;28.50;1.00;;;;;;7373397;19;20460;-72
2023/08/15 11:01:43;;;;;;;5.80;2.05;;;29.00;1.00;;;;;;7372515;19;20017;-71
2023/08/15 11:04:16;;;;;;;9.52;2.75;;;28.90;1.00;;;;;;7369781;19;20075;-70
2023/08/15 11:06:48;;;;;;;6.05;2.60;;;29.10;1.00;;;;;;7370580;19;20010;-72
2023/08/15 11:09:19;;;;;;;4.00;2.40;;;29.10;1.00;;;;;;7370609;19;20014;-74
2023/08/15 11:11:49;;;;;;;5.25;2.58;;;29.20;1.00;;;;;;7371502;19;20010;-71
2023/08/15 11:14:20;;;;;;;6.03;2.92;;;29.10;1.00;;;;;;7371173;19;20333;-71
2023/08/15 11:16:53;;;;;;;9.52;2.80;;;28.60;1.00;;;;;;7370936;19;20527;-72
2023/08/15 11:19:23;;;;;;;7.15;3.03;;;28.50;1.00;;;;;;7372598;19;20010;-71
2023/08/15 11:21:53;;;;;;;8.18;2.90;;;28.90;1.00;;;;;;7369085;19;20522;-71
2023/08/15 11:24:23;;;;;;;7.55;3.10;;;29.10;1.00;;;;;;7369237;19;20544;-71
2023/08/15 11:26:53;;;;;;;6.15;3.35;;;29.70;1.00;;;;;;7368605;19;20011;-71
2023/08/15 11:29:23;;;;;;;6.82;3.08;;;29.00;1.00;;;;;;7368409;19;20481;-71
2023/08/15 11:31:58;;;;;;;6.20;3.25;;;29.20;1.00;;;;;;7367894;19;20006;-70
2023/08/15 11:34:29;;;;;;;5.28;3.65;;;29.70;1.00;;;;;;7368697;19;20078;-71
2023/08/15 11:36:59;;;;;;;5.30;3.40;;;29.40;1.00;;;;;;7372543;19;20026;-71
2023/08/15 11:39:29;;;;;;;4.85;3.50;;;28.70;1.00;;;;;;7371432;19;20074;-71
2023/08/15 11:41:59;;;;;;;7.53;3.50;;;29.00;1.00;;;;;;7372406;19;20021;-72
2023/08/15 11:44:29;;;;;;;6.25;3.63;;;29.20;1.00;;;;;;7367007;19;20042;-71
2023/08/15 11:47:02;;;;;;;5.63;3.45;;;29.30;1.00;;;;;;7368832;19;20650;-71
2023/08/15 11:49:33;;;;;;;6.78;4.13;;;29.90;1.00;;;;;;7369476;19;20011;-71
2023/08/15 11:52:17;;;;;;;8.63;3.80;;;29.60;1.00;;;;;;7369482;19;20014;-71
2023/08/15 11:54:47;;;;;;;4.63;3.45;;;29.70;1.00;;;;;;7369554;19;20274;-70
2023/08/15 11:57:17;;;;;;;9.30;4.03;;;29.00;1.00;;;;;;7371586;19;20024;-71
2023/08/15 11:59:47;;;;;;;9.45;4.47;;;28.70;1.00;;;;;;7369255;19;20029;-70
2023/08/15 12:02:20;;;;;;;8.43;4.03;;;29.20;1.00;;;;;;7370312;19;20040;-71
2023/08/15 12:04:50;;;;;;;7.22;4.13;;;28.80;1.00;;;;;;7368677;19;20073;-71
2023/08/15 12:07:20;;;;;;;8.63;4.82;;;29.40;1.00;;;;;;7369048;19;20027;-71
2023/08/15 12:09:50;;;;;;;6.47;4.90;;;29.90;1.00;;;;;;7368292;19;20023;-71
2023/08/15 12:12:21;;;;;;;9.57;4.50;;;28.90;1.00;;;;;;7368920;19;20098;-70
2023/08/15 12:14:51;;;;;;;7.25;4.22;;;29.10;1.00;;;;;;7372045;19;20014;-70
2023/08/15 12:17:23;;;;;;;5.55;3.60;;;28.20;1.00;;;;;;7369542;19;20018;-71
2023/08/15 12:19:54;;;;;;;14.50;3.78;;;28.10;1.00;;;;;;7365550;19;20019;-71
2023/08/15 12:22:24;;;;;;;6.18;3.92;;;28.10;1.00;;;;;;7369222;19;20115;-70
2023/08/15 12:24:56;;;;;;;6.90;3.42;;;28.70;1.00;;;;;;7368167;19;20098;-70
2023/08/15 12:27:25;;;;;;;8.48;3.38;;;28.60;1.00;;;;;;7366629;19;20518;-72
2023/08/15 12:29:55;;;;;;;7.75;3.50;;;28.00;1.00;;;;;;7367322;19;20538;-71
2023/08/15 12:32:47;;;;;;;5.93;3.60;;;28.20;1.00;;;;;;7367827;19;20103;-71
2023/08/15 12:35:18;;;;;;;6.80;3.72;;;28.10;1.00;;;;;;7368940;19;20031;-71
2023/08/15 12:37:48;;;;;;;7.95;3.75;;;27.90;1.00;;;;;;7368708;19;20561;-72
2023/08/15 12:40:18;;;;;;;5.82;3.80;;;28.80;1.00;;;;;;7368871;19;20533;-71
2023/08/15 12:43:00;;;;;;;7.25;3.45;;;28.80;1.00;;;;;;7367009;19;20006;-71
2023/08/15 12:45:30;;;;;;;8.43;3.22;;;29.00;1.00;;;;;;7366220;19;20043;-72
2023/08/15 12:48:03;;;;;;;6.00;3.50;;;28.90;1.00;;;;;;7367340;19;20010;-71
2023/08/15 12:50:33;;;;;;;5.93;3.70;;;28.90;1.00;;;;;;7366259;19;20007;-72
2023/08/15 12:53:03;;;;;;;4.57;3.13;;;29.10;1.00;;;;;;7364401;19;20115;-71
2023/08/15 12:55:33;;;;;;;5.60;3.03;;;28.30;1.00;;;;;;7364565;19;20136;-71
2023/08/15 12:58:03;;;;;;;5.47;2.95;;;28.60;1.00;;;;;;7366354;19;20136;-71
2023/08/15 13:00:33;;;;;;;7.40;3.10;;;28.40;1.00;;;;;;7370632;19;20098;-71
2023/08/15 13:03:06;;;;;;;11.93;3.88;;;28.50;1.00;;;;;;7375156;19;20126;-72